• Join FlightAware (Why Join?)
  • Login
  • US Flag 
04:03AM EDT


 

Airport Tracker/Info


-or-


 

Live Flight TrackerFlight Track Log ✈ SWA2087 ✈ 20-Jun-2013 ✈ KRSW - KSTL

Flight Track Log - Related Links

Times and Time Zones

All times are in EDT time to prevent confusion due to time zone crossing. See the SWA2087 flight status page for this flight to view local times or setup timezone preferences in your user account.

Time Position Orientation Groundspeed Altitude Reporting Facility
EDT Latitude Longitude Course Direction KTS MPH feet Rate Location/Type
11:31AM 26.6447 -81.6558 346° North 236 272 5,700  Level Miami Center
11:32AM 26.7172 -81.6750 347° North 299 344 8,700 2,340 Climbing Miami Center
11:33AM 26.8022 -81.6947 348° North 305 351 10,400 2,340 Climbing Miami Center
11:34AM 26.8953 -81.7150 349° North 324 373 13,500 3,120 Climbing Miami Center
11:35AM 27.1728 -81.7932 347° North  Level FlightAware Approximate
11:35AM 26.9967 -81.7425 346° North 353 406 16,700  Level Miami Center
11:36AM 27.2783 -81.8224 346° North  Level FlightAware Approximate
11:36AM 27.1064 -81.7728 346° North 366 421 20,200  Level Miami Center
11:37AM 27.2075 -81.8050 344° North 371 427 22,300 1,380 Climbing Miami Center
11:38AM 27.3189 -81.8425 343° North 393 452 23,000 1,320 Climbing Miami Center
11:39AM 27.4242 -81.8797 343° North 420 483 25,000 1,860 Climbing Miami Center
11:40AM 27.5519 -81.9275 342° North 430 495 26,800 1,980 Climbing Miami Center
11:41AM 27.6694 -81.9678 343° North 438 504 29,000 1,560 Climbing Miami Center
11:42AM 27.7869 -82.0083 343° North 438 504 30,000 480 Climbing Miami Center
11:43AM 27.9119 -82.0139 358° North 431 496 30,000  Level Miami Center
11:44AM 28.0283 -82.0486 345° North 437 503 30,000  Level Jacksonville Center
11:45AM 28.1289 -82.1394 321° Northwest 427 491 30,000  Level Jacksonville Center
11:46AM 28.2297 -82.2283 322° Northwest 448 516 30,000 300 Level Jacksonville Center
11:47AM 28.3303 -82.3219 321° Northwest 460 529 30,700 1,380 Climbing Jacksonville Center
11:48AM 28.4308 -82.4133 321° Northwest 467 537 32,800 1,620 Climbing Jacksonville Center
11:49AM 28.5269 -82.4981 322° Northwest 461 531 34,000 600 Climbing Jacksonville Center
11:50AM 28.6233 -82.5875 321° Northwest 454 522 34,000  Level Jacksonville Center
11:51AM 28.7172 -82.6700 322° Northwest 449 517 34,000  Level Jacksonville Center
11:52AM 28.8156 -82.7600 321° Northwest 449 517 34,000  Level Jacksonville Center
11:53AM 28.9117 -82.8450 322° Northwest 449 517 34,000 120 Level Jacksonville Center
11:54AM 29.0056 -82.9331 321° Northwest 444 511 34,300 900 Climbing Jacksonville Center
11:55AM 29.1017 -83.0208 321° Northwest 444 511 35,900 840 Climbing Jacksonville Center
11:56AM 29.1975 -83.1092 321° Northwest 444 511 36,000 720 Climbing Jacksonville Center
11:57AM 29.2911 -83.1972 321° Northwest 444 511 37,400 960 Climbing Jacksonville Center
11:58AM 29.3869 -83.2786 324° Northwest 439 505 38,000 300 Climbing Jacksonville Center
11:59AM 29.4892 -83.3578 326° Northwest 439 505 38,000  Level Jacksonville Center
12:00PM 29.5847 -83.4372 324° Northwest 439 505 38,000  Level Jacksonville Center
12:01PM 29.6847 -83.5167 325° Northwest 434 499 38,000  Level Jacksonville Center
12:02PM 29.7928 -83.6033 325° Northwest 434 499 38,000  Level Jacksonville Center
12:03PM 29.8903 -83.6831 325° Northwest 434 499 38,000  Level Jacksonville Center
12:04PM 29.9900 -83.7606 326° Northwest 434 499 38,000  Level Jacksonville Center
12:05PM 30.0875 -83.8408 325° Northwest 434 499 38,000  Level Jacksonville Center
12:06PM 30.1850 -83.9186 325° Northwest 434 499 38,000  Level Jacksonville Center
12:07PM 30.2806 -83.9992 324° Northwest 429 494 38,000  Level Jacksonville Center
12:08PM 30.3778 -84.0797 324° Northwest 429 494 38,000  Level Jacksonville Center
12:09PM 30.4733 -84.1556 326° Northwest 429 494 38,000  Level Jacksonville Center
12:10PM 30.5664 -84.2339 324° Northwest 429 494 38,000  Level Jacksonville Center
12:11PM 30.6594 -84.3125 324° Northwest 424 488 38,000  Level Jacksonville Center
12:12PM 30.7589 -84.3914 326° Northwest 429 494 38,000  Level Jacksonville Center
12:13PM 30.8558 -84.4728 324° Northwest 429 494 38,000  Level Jacksonville Center
12:14PM 30.9508 -84.5542 324° Northwest 429 494 38,000  Level Jacksonville Center
12:15PM 31.0458 -84.6336 324° Northwest 429 494 38,000  Level Jacksonville Center
12:16PM 31.1431 -84.7131 325° Northwest 429 494 38,000  Level Jacksonville Center
12:17PM 31.2378 -84.7950 324° Northwest 429 494 38,000  Level Jacksonville Center
12:19PM 31.4508 -84.9736 324° Northwest 429 494 38,000  Level Atlanta Center
12:20PM 31.5442 -85.0525 324° Northwest 424 488 38,000  Level Atlanta Center
12:21PM 31.6333 -85.1317 323° Northwest 412 474 38,000  Level Atlanta Center
12:22PM 31.7369 -85.2133 326° Northwest 412 474 38,000  Level Atlanta Center
12:23PM 31.8322 -85.2906 325° Northwest 407 468 38,000  Level Atlanta Center
12:24PM 31.9231 -85.3700 323° Northwest 407 468 38,000  Level Atlanta Center
12:25PM 32.0183 -85.4497 325° Northwest 407 468 38,000  Level Atlanta Center
12:26PM 32.1111 -85.5297 324° Northwest 407 468 38,000  Level Atlanta Center
12:27PM 32.2064 -85.6100 325° Northwest 407 468 38,000  Level Atlanta Center
12:28PM 32.3011 -85.6925 324° Northwest 413 475 38,000  Level Atlanta Center
12:29PM 32.3961 -85.7706 325° Northwest 413 475 38,000  Level Atlanta Center
12:30PM 32.4783 -85.8511 320° Northwest 420 483 38,000  Level Atlanta Center
12:31PM 32.5753 -85.9294 326° Northwest 420 483 38,000  Level Atlanta Center
12:32PM 32.6722 -86.0131 324° Northwest 427 491 38,000  Level Atlanta Center
12:33PM 32.7669 -86.0967 323° Northwest 427 491 38,000  Level Atlanta Center
12:34PM 32.8614 -86.1781 324° Northwest 427 491 38,000  Level Atlanta Center
12:35PM 32.9558 -86.2644 323° Northwest 427 491 38,000  Level Atlanta Center
12:36PM 33.0547 -86.3461 325° Northwest 432 497 38,000  Level Atlanta Center
12:37PM 33.1511 -86.4331 323° Northwest 432 497 38,000  Level Atlanta Center
12:38PM 33.2475 -86.5153 325° Northwest 432 497 38,000  Level Atlanta Center
12:39PM 33.3458 -86.6100 321° Northwest 427 491 38,000  Level Atlanta Center
12:40PM 33.4400 -86.6925 324° Northwest 422 486 38,000  Level Atlanta Center
12:41PM 33.5322 -86.7775 322° Northwest 422 486 38,000  Level Atlanta Center
12:42PM 33.6261 -86.8628 323° Northwest 422 486 38,000  Level Atlanta Center
12:43PM 33.7225 -86.9411 326° Northwest 427 491 38,000  Level Atlanta Center
12:44PM 33.8208 -87.0192 327° Northwest 427 491 38,000  Level Atlanta Center
12:47PM 34.0425 -87.1861 328° Northwest 413 475 38,000  Level Memphis Center
12:48PM 34.1489 -87.2750 325° Northwest 420 483 38,000  Level Memphis Center
12:49PM 34.2342 -87.3425 327° Northwest 415 478 38,000  Level Memphis Center
12:50PM 34.3278 -87.4169 327° Northwest 410 472 38,000  Level Memphis Center
12:51PM 34.4233 -87.4944 326° Northwest 410 472 38,000  Level Memphis Center
12:52PM 34.5189 -87.5667 328° Northwest 405 466 38,000  Level Memphis Center
12:53PM 34.6167 -87.6442 327° Northwest 410 472 38,000  Level Memphis Center
12:54PM 34.7081 -87.7222 325° Northwest 408 470 38,000  Level Memphis Center
12:55PM 34.8056 -87.8000 327° Northwest 414 476 38,000  Level Memphis Center
12:56PM 34.9097 -87.8856 326° Northwest 409 471 38,000  Level Memphis Center
12:57PM 35.0050 -87.9614 327° Northwest 409 471 38,000  Level Memphis Center
12:58PM 35.0983 -88.0400 325° Northwest 404 465 38,000  Level Memphis Center
12:59PM 35.1853 -88.1136 325° Northwest 413 475 38,000  Level Memphis Center
01:00PM 35.2783 -88.1925 325° Northwest 413 475 38,000  Level Memphis Center
01:01PM 35.3756 -88.2714 327° Northwest 413 475 38,000  Level Memphis Center
01:02PM 35.4686 -88.3406 329° Northwest 401 461 38,000  Level Memphis Center
01:03PM 35.5639 -88.4250 324° Northwest 407 468 38,000  Level Memphis Center
01:04PM 35.6608 -88.5019 327° Northwest 412 474 38,000 -180 Level Memphis Center
01:05PM 35.7581 -88.5842 326° Northwest 418 481 37,700 -660 Descending Memphis Center
01:06PM 35.8531 -88.6642 326° Northwest 418 481 36,700 -1,020 Descending Memphis Center
01:07PM 35.9478 -88.7442 326° Northwest 418 481 35,700 -900 Descending Memphis Center
01:08PM 36.0428 -88.8244 326° Northwest 418 481 35,000 -360 Descending Memphis Center
01:09PM 36.1375 -88.9050 326° Northwest 418 481 35,000  Level Memphis Center
01:10PM 36.2322 -88.9831 326° Northwest 413 475 35,000 -300 Level Memphis Center
01:11PM 36.3311 -89.0533 330° Northwest 408 470 34,400 -780 Descending Memphis Center
01:12PM 36.4422 -89.1136 336° Northwest 414 476 33,500 -1,200 Descending Memphis Center
01:13PM 36.5533 -89.1817 334° Northwest 433 498 32,000 -1,260 Descending Memphis Center
01:14PM 36.6642 -89.2472 335° Northwest 438 504 31,000 -1,020 Descending Memphis Center
01:15PM 36.7733 -89.3131 334° Northwest 438 504 30,000 -1,020 Descending Memphis Center
01:16PM 36.8822 -89.3764 335° Northwest 433 498 29,000 -1,020 Descending Memphis Center
01:17PM 36.9889 -89.4375 335° Northwest 426 490 28,000 -1,020 Descending Memphis Center
01:18PM 37.0936 -89.5014 334° Northwest 426 490 27,000 -1,080 Descending Memphis Center
01:19PM 37.1911 -89.5531 337° Northwest 409 471 26,000 -540 Descending Kansas City Center
01:20PM 37.2919 -89.6106 336° Northwest 399 459 26,000  Level Kansas City Center
01:21PM 37.3944 -89.6653 337° Northwest 400 460 26,000 -540 Level Kansas City Center
01:22PM 37.4967 -89.7214 336° Northwest 400 460 25,000 -960 Descending Kansas City Center
01:23PM 37.6069 -89.7808 337° Northwest 391 450 24,000 -480 Descending Kansas City Center
01:24PM 37.7036 -89.8328 337° Northwest 381 438 24,000  Level Kansas City Center
01:25PM 37.8008 -89.8892 335° Northwest 383 441 24,000 -900 Level Kansas City Center
01:26PM 37.9206 -89.9522 337° Northwest 384 442 22,200 -1,860 Descending Kansas City Center
01:27PM 38.0144 -90.0031 337° Northwest 370 426 20,200 -1,920 Descending Kansas City Center
01:28PM 38.1028 -90.0539 336° Northwest 356 410 18,300 -1,920 Descending Kansas City Center
01:29PM 38.1911 -90.1033 336° Northwest 350 403 16,300 -1,920 Descending Kansas City Center
01:30PM 38.2767 -90.1519 336° Northwest 345 397 14,400 -1,800 Descending Kansas City Center
01:31PM 38.3594 -90.1975 337° Northwest 334 384 12,600 -1,980 Descending Kansas City Center
01:32PM 38.4606 -90.2467 339° North 327 376 10,400 -1,320 Descending Kansas City Center
01:33PM 38.5358 -90.2986 332° Northwest 321 369 9,900 -840 Descending Kansas City Center
01:34PM 38.6100 -90.3386 337° Northwest 303 349 8,700 -1,140 Descending Kansas City Center
01:35PM 38.6631 -90.4067 315° West 292 336 7,600 -1,140 Descending Kansas City Center
01:36PM 38.7050 -90.4831 305° West 261 300 6,400 -1,680 Descending Kansas City Center
01:37PM 38.7447 -90.5458 309° West 238 274 4,200 -1,680 Descending Kansas City Center
01:38PM 38.7786 -90.5019 45° Northeast 203 234 3,000 -1,140 Descending Kansas City Center
01:39PM 38.7878 -90.4492 77° East 167 192 1,900 -960 Descending Kansas City Center
01:40PM 38.7669 -90.4056 121° Southeast 150 173 1,100 -720 Descending Kansas City Center
01:41PM 38.7447 -90.3608 122° Southeast 143 165 500 -600 Descending Kansas City Center